WLF1800 YMHB-YMML
Flight info
| Callsign | WLF1800 |
|---|---|
| Flight time | 1h 0m |
| Altitude | 36000 |
| Route | TASUM H111 LT H215 RAZZI W687 ML |
| Aircraft | B38M/M-SDE1FGHILORVWXY/HB1 |
Departure
| Time | 2026-04-23 23:53 |
|---|---|
| Airport | Hobart International Airport (YMHB) |
Arrival
| Time | 2026-04-24 00:53 |
|---|---|
| Airport | Melbourne Airport (YMML) |
| Time | Latitude | Longitude | Altitude | Speed | Heading |
|---|---|---|---|---|---|
| 2026-04-23 23:23 | -42.83710 | 147.50668 | 24 ft | 0 kts | 225° |
| 2026-04-23 23:45 | -42.83693 | 147.50689 | 24 ft | 3 kts | 216° |
| 2026-04-23 23:45 | -42.83671 | 147.50703 | 28 ft | 4 kts | 177° |
| 2026-04-23 23:45 | -42.83658 | 147.50696 | 24 ft | 0 kts | 135° |
| 2026-04-23 23:47 | -42.83666 | 147.50707 | 26 ft | 3 kts | 135° |
| 2026-04-23 23:48 | -42.83689 | 147.50739 | 24 ft | 6 kts | 135° |
| 2026-04-23 23:48 | -42.83730 | 147.50785 | 27 ft | 9 kts | 144° |
| 2026-04-23 23:48 | -42.83793 | 147.50836 | 28 ft | 12 kts | 152° |
| 2026-04-23 23:48 | -42.83866 | 147.50908 | 27 ft | 14 kts | 135° |
| 2026-04-23 23:49 | -42.83908 | 147.51134 | 24 ft | 17 kts | 44° |
| 2026-04-23 23:49 | -42.83819 | 147.51251 | 24 ft | 19 kts | 45° |
| 2026-04-23 23:49 | -42.83791 | 147.51411 | 28 ft | 20 kts | 124° |
| 2026-04-23 23:50 | -42.83892 | 147.51558 | 25 ft | 22 kts | 137° |
| 2026-04-23 23:50 | -42.84010 | 147.51713 | 26 ft | 25 kts | 135° |
| 2026-04-23 23:50 | -42.84138 | 147.51886 | 26 ft | 27 kts | 135° |
| 2026-04-23 23:50 | -42.84275 | 147.52074 | 24 ft | 29 kts | 135° |
| 2026-04-23 23:51 | -42.84407 | 147.52251 | 25 ft | 25 kts | 140° |
| 2026-04-23 23:51 | -42.84534 | 147.52325 | 29 ft | 18 kts | 154° |
| 2026-04-23 23:51 | -42.84572 | 147.52370 | 28 ft | 5 kts | 120° |
| 2026-04-23 23:51 | -42.84564 | 147.52417 | 24 ft | 6 kts | 48° |
| 2026-04-23 23:52 | -42.84525 | 147.52417 | 27 ft | 7 kts | 314° |
| 2026-04-23 23:52 | -42.84463 | 147.52327 | 28 ft | 35 kts | 314° |
| 2026-04-23 23:52 | -42.84103 | 147.51841 | 26 ft | 108 kts | 314° |
| 2026-04-23 23:52 | -42.83422 | 147.50909 | 102 ft | 162 kts | 315° |
| 2026-04-23 23:53 | -42.82586 | 147.49740 | 708 ft | 180 kts | 317° |
| 2026-04-23 23:53 | -42.81674 | 147.48512 | 1508 ft | 192 kts | 316° |
| 2026-04-23 23:53 | -42.80707 | 147.47177 | 2149 ft | 211 kts | 314° |
| 2026-04-23 23:53 | -42.79634 | 147.45658 | 2753 ft | 227 kts | 314° |
| 2026-04-23 23:54 | -42.78529 | 147.44122 | 3769 ft | 230 kts | 315° |
| 2026-04-23 23:54 | -42.77366 | 147.42575 | 4646 ft | 236 kts | 314° |
| 2026-04-23 23:54 | -42.76191 | 147.40994 | 5587 ft | 240 kts | 313° |
| 2026-04-23 23:54 | -42.74989 | 147.39367 | 6400 ft | 249 kts | 312° |
| 2026-04-23 23:55 | -42.73756 | 147.37690 | 7263 ft | 253 kts | 312° |
| 2026-04-23 23:55 | -42.72481 | 147.35952 | 8022 ft | 261 kts | 313° |
| 2026-04-23 23:55 | -42.71625 | 147.34785 | 8611 ft | 263 kts | 313° |
| 2026-04-23 23:55 | -42.69887 | 147.32414 | 9681 ft | 272 kts | 313° |
| 2026-04-23 23:56 | -42.68536 | 147.30570 | 10412 ft | 282 kts | 314° |
| 2026-04-23 23:56 | -42.67586 | 147.29272 | 10706 ft | 294 kts | 314° |
| 2026-04-23 23:56 | -42.66111 | 147.27260 | 11279 ft | 306 kts | 313° |
| 2026-04-23 23:56 | -42.64113 | 147.24538 | 12495 ft | 306 kts | 313° |
| 2026-04-23 23:57 | -42.63091 | 147.23146 | 13076 ft | 308 kts | 313° |
| 2026-04-23 23:57 | -42.61561 | 147.21061 | 13884 ft | 314 kts | 313° |
| 2026-04-23 23:57 | -42.59842 | 147.19218 | 14714 ft | 320 kts | 330° |
| 2026-04-23 23:57 | -42.57687 | 147.18371 | 15570 ft | 330 kts | 352° |
| 2026-04-23 23:58 | -42.55400 | 147.18686 | 16339 ft | 343 kts | 13° |
| 2026-04-23 23:58 | -42.53249 | 147.20178 | 17146 ft | 354 kts | 32° |
| 2026-04-23 23:58 | -42.51193 | 147.22124 | 17888 ft | 359 kts | 30° |
| 2026-04-23 23:58 | -42.49138 | 147.23999 | 18629 ft | 363 kts | 30° |
| 2026-04-23 23:59 | -42.47056 | 147.25961 | 19278 ft | 368 kts | 31° |
| 2026-04-23 23:59 | -42.44940 | 147.27958 | 19928 ft | 371 kts | 31° |
| 2026-04-23 23:59 | -42.42809 | 147.29963 | 20574 ft | 375 kts | 31° |
| 2026-04-23 23:59 | -42.40655 | 147.31990 | 21204 ft | 379 kts | 31° |
| 2026-04-24 00:00 | -42.38482 | 147.34031 | 21810 ft | 383 kts | 31° |
| 2026-04-24 00:00 | -42.36283 | 147.36095 | 22429 ft | 387 kts | 31° |
| 2026-04-24 00:00 | -42.34000 | 147.37995 | 23005 ft | 386 kts | 19° |
| 2026-04-24 00:00 | -42.31427 | 147.38909 | 23583 ft | 381 kts | 1° |
| 2026-04-24 00:01 | -42.28787 | 147.38762 | 24090 ft | 381 kts | 348° |
| 2026-04-24 00:01 | -42.26152 | 147.38262 | 24502 ft | 385 kts | 348° |
| 2026-04-24 00:01 | -42.23495 | 147.37700 | 24990 ft | 388 kts | 347° |
| 2026-04-24 00:01 | -42.20819 | 147.37099 | 25490 ft | 390 kts | 347° |
| 2026-04-24 00:02 | -42.18129 | 147.36476 | 25972 ft | 393 kts | 347° |
| 2026-04-24 00:02 | -42.15425 | 147.35835 | 26444 ft | 396 kts | 347° |
| 2026-04-24 00:02 | -42.12713 | 147.35185 | 26917 ft | 398 kts | 347° |
| 2026-04-24 00:02 | -42.09969 | 147.34529 | 27380 ft | 401 kts | 347° |
| 2026-04-24 00:03 | -42.07208 | 147.33868 | 27824 ft | 404 kts | 348° |
| 2026-04-24 00:03 | -42.04435 | 147.33207 | 28255 ft | 407 kts | 347° |
| 2026-04-24 00:03 | -42.01644 | 147.32537 | 28700 ft | 409 kts | 347° |
| 2026-04-24 00:03 | -41.98817 | 147.31861 | 29121 ft | 413 kts | 348° |
| 2026-04-24 00:04 | -41.95975 | 147.31184 | 29417 ft | 418 kts | 348° |
| 2026-04-24 00:04 | -41.93114 | 147.30501 | 29877 ft | 420 kts | 348° |
| 2026-04-24 00:04 | -41.90227 | 147.29814 | 30269 ft | 422 kts | 348° |
| 2026-04-24 00:04 | -41.87357 | 147.29130 | 30615 ft | 425 kts | 348° |
| 2026-04-24 00:05 | -41.84435 | 147.28435 | 30977 ft | 428 kts | 348° |
| 2026-04-24 00:05 | -41.81454 | 147.27727 | 31322 ft | 430 kts | 348° |
| 2026-04-24 00:05 | -41.78549 | 147.27037 | 31651 ft | 432 kts | 348° |
| 2026-04-24 00:05 | -41.75576 | 147.26332 | 31988 ft | 435 kts | 348° |
| 2026-04-24 00:06 | -41.72597 | 147.25626 | 32318 ft | 437 kts | 348° |
| 2026-04-24 00:06 | -41.69587 | 147.24913 | 32658 ft | 439 kts | 348° |
| 2026-04-24 00:06 | -41.66573 | 147.24201 | 32982 ft | 440 kts | 348° |
| 2026-04-24 00:06 | -41.63547 | 147.23485 | 33295 ft | 443 kts | 348° |
| 2026-04-24 00:07 | -41.60512 | 147.22769 | 33678 ft | 443 kts | 348° |
| 2026-04-24 00:07 | -41.57475 | 147.22053 | 34073 ft | 443 kts | 348° |
| 2026-04-24 00:07 | -41.54452 | 147.21260 | 34464 ft | 441 kts | 341° |
| 2026-04-24 00:07 | -41.51620 | 147.19781 | 34851 ft | 437 kts | 335° |
| 2026-04-24 00:08 | -41.48788 | 147.18257 | 35188 ft | 438 kts | 336° |
| 2026-04-24 00:08 | -41.45964 | 147.16738 | 35546 ft | 437 kts | 335° |
| 2026-04-24 00:08 | -41.43155 | 147.15218 | 35935 ft | 435 kts | 335° |
| 2026-04-24 00:08 | -41.40359 | 147.13703 | 36293 ft | 434 kts | 335° |
| 2026-04-24 00:09 | -41.37556 | 147.12185 | 36477 ft | 435 kts | 335° |
| 2026-04-24 00:09 | -41.34760 | 147.10672 | 36464 ft | 433 kts | 335° |
| 2026-04-24 00:09 | -41.29185 | 147.07657 | 36475 ft | 433 kts | 335° |
| 2026-04-24 00:10 | -41.23602 | 147.04645 | 36469 ft | 433 kts | 335° |
| 2026-04-24 00:10 | -41.18022 | 147.01639 | 36468 ft | 432 kts | 335° |
| 2026-04-24 00:11 | -41.12461 | 146.98650 | 36456 ft | 432 kts | 336° |
| 2026-04-24 00:11 | -41.06857 | 146.95642 | 36466 ft | 434 kts | 336° |
| 2026-04-24 00:12 | -41.01267 | 146.92647 | 36464 ft | 434 kts | 336° |
| 2026-04-24 00:12 | -40.95676 | 146.89658 | 36465 ft | 433 kts | 336° |
| 2026-04-24 00:13 | -40.90119 | 146.86693 | 36466 ft | 433 kts | 336° |
| 2026-04-24 00:13 | -40.84518 | 146.83709 | 36465 ft | 435 kts | 336° |
| 2026-04-24 00:14 | -40.78882 | 146.80712 | 36461 ft | 434 kts | 336° |
| 2026-04-24 00:14 | -40.73321 | 146.77760 | 36462 ft | 433 kts | 336° |
| 2026-04-24 00:15 | -40.67719 | 146.74792 | 36460 ft | 434 kts | 336° |
| 2026-04-24 00:15 | -40.62116 | 146.71829 | 36463 ft | 435 kts | 336° |
| 2026-04-24 00:16 | -40.56501 | 146.68865 | 36457 ft | 434 kts | 336° |
| 2026-04-24 00:16 | -40.50905 | 146.65916 | 36457 ft | 434 kts | 336° |
| 2026-04-24 00:17 | -40.45286 | 146.62961 | 36460 ft | 434 kts | 336° |
| 2026-04-24 00:17 | -40.39677 | 146.60015 | 36453 ft | 435 kts | 336° |
| 2026-04-24 00:18 | -40.34058 | 146.57070 | 36452 ft | 435 kts | 336° |
| 2026-04-24 00:18 | -40.28439 | 146.54131 | 36456 ft | 435 kts | 336° |
| 2026-04-24 00:19 | -40.22823 | 146.51198 | 36454 ft | 435 kts | 336° |
| 2026-04-24 00:19 | -40.17197 | 146.48265 | 36452 ft | 435 kts | 336° |
| 2026-04-24 00:20 | -40.11576 | 146.45340 | 36452 ft | 436 kts | 336° |
| 2026-04-24 00:20 | -40.05944 | 146.42413 | 36453 ft | 436 kts | 336° |
| 2026-04-24 00:21 | -40.00307 | 146.39492 | 36450 ft | 436 kts | 336° |
| 2026-04-24 00:21 | -39.94667 | 146.36588 | 36446 ft | 436 kts | 336° |
| 2026-04-24 00:22 | -39.89024 | 146.33685 | 36452 ft | 437 kts | 336° |
| 2026-04-24 00:22 | -39.83412 | 146.30804 | 36456 ft | 437 kts | 336° |
| 2026-04-24 00:23 | -39.77722 | 146.27886 | 36451 ft | 436 kts | 336° |
| 2026-04-24 00:23 | -39.72111 | 146.25015 | 36447 ft | 436 kts | 336° |
| 2026-04-24 00:24 | -39.66458 | 146.22128 | 36455 ft | 437 kts | 336° |
| 2026-04-24 00:24 | -39.60808 | 146.19248 | 36454 ft | 437 kts | 336° |
| 2026-04-24 00:25 | -39.55239 | 146.16414 | 36147 ft | 420 kts | 336° |
| 2026-04-24 00:25 | -39.52535 | 146.15040 | 35706 ft | 416 kts | 336° |
| 2026-04-24 00:25 | -39.49847 | 146.13675 | 35208 ft | 415 kts | 337° |
| 2026-04-24 00:26 | -39.47163 | 146.12313 | 34707 ft | 413 kts | 337° |
| 2026-04-24 00:26 | -39.44494 | 146.10959 | 34190 ft | 412 kts | 337° |
| 2026-04-24 00:26 | -39.41830 | 146.09610 | 33667 ft | 410 kts | 337° |
| 2026-04-24 00:26 | -39.39177 | 146.08266 | 33119 ft | 409 kts | 337° |
| 2026-04-24 00:27 | -39.36542 | 146.06934 | 32606 ft | 407 kts | 337° |
| 2026-04-24 00:27 | -39.33913 | 146.05606 | 32196 ft | 403 kts | 337° |
| 2026-04-24 00:27 | -39.31317 | 146.04295 | 31786 ft | 399 kts | 337° |
| 2026-04-24 00:27 | -39.28743 | 146.02996 | 31340 ft | 396 kts | 337° |
| 2026-04-24 00:28 | -39.26181 | 146.01704 | 30899 ft | 394 kts | 337° |
| 2026-04-24 00:28 | -39.23634 | 146.00421 | 30455 ft | 392 kts | 337° |
| 2026-04-24 00:28 | -39.21091 | 145.99142 | 29945 ft | 390 kts | 337° |
| 2026-04-24 00:28 | -39.18587 | 145.97884 | 29518 ft | 387 kts | 336° |
| 2026-04-24 00:29 | -39.16096 | 145.96631 | 29100 ft | 383 kts | 337° |
| 2026-04-24 00:29 | -39.13627 | 145.95391 | 28689 ft | 379 kts | 336° |
| 2026-04-24 00:29 | -39.11174 | 145.94159 | 28283 ft | 376 kts | 337° |
| 2026-04-24 00:29 | -39.08749 | 145.92945 | 27895 ft | 373 kts | 337° |
| 2026-04-24 00:30 | -39.06334 | 145.91735 | 27488 ft | 371 kts | 337° |
| 2026-04-24 00:30 | -39.03939 | 145.90535 | 27099 ft | 368 kts | 337° |
| 2026-04-24 00:30 | -39.01588 | 145.89359 | 26723 ft | 366 kts | 337° |
| 2026-04-24 00:30 | -38.99226 | 145.88178 | 26347 ft | 364 kts | 337° |
| 2026-04-24 00:31 | -38.96870 | 145.87000 | 25968 ft | 362 kts | 337° |
| 2026-04-24 00:31 | -38.94522 | 145.85828 | 25591 ft | 360 kts | 337° |
| 2026-04-24 00:31 | -38.92194 | 145.84666 | 25217 ft | 359 kts | 337° |
| 2026-04-24 00:31 | -38.89877 | 145.83511 | 24847 ft | 357 kts | 337° |
| 2026-04-24 00:32 | -38.87562 | 145.82358 | 24476 ft | 356 kts | 337° |
| 2026-04-24 00:32 | -38.85251 | 145.81208 | 24107 ft | 355 kts | 337° |
| 2026-04-24 00:32 | -38.82953 | 145.80065 | 23673 ft | 353 kts | 337° |
| 2026-04-24 00:32 | -38.80674 | 145.78932 | 23282 ft | 351 kts | 337° |
| 2026-04-24 00:33 | -38.78406 | 145.77806 | 22916 ft | 348 kts | 337° |
| 2026-04-24 00:33 | -38.76154 | 145.76687 | 22560 ft | 345 kts | 337° |
| 2026-04-24 00:33 | -38.73928 | 145.75582 | 22205 ft | 342 kts | 337° |
| 2026-04-24 00:33 | -38.71712 | 145.74484 | 21852 ft | 340 kts | 336° |
| 2026-04-24 00:34 | -38.69519 | 145.73397 | 21502 ft | 337 kts | 338° |
| 2026-04-24 00:34 | -38.67336 | 145.72317 | 21159 ft | 334 kts | 336° |
| 2026-04-24 00:34 | -38.65174 | 145.71246 | 20819 ft | 333 kts | 338° |
| 2026-04-24 00:34 | -38.63019 | 145.70180 | 20471 ft | 332 kts | 337° |
| 2026-04-24 00:35 | -38.60857 | 145.69112 | 20130 ft | 332 kts | 337° |
| 2026-04-24 00:35 | -38.58713 | 145.68052 | 19785 ft | 331 kts | 337° |
| 2026-04-24 00:35 | -38.56564 | 145.66992 | 19447 ft | 330 kts | 338° |
| 2026-04-24 00:35 | -38.54424 | 145.65935 | 19107 ft | 329 kts | 338° |
| 2026-04-24 00:36 | -38.52294 | 145.64885 | 18775 ft | 328 kts | 337° |
| 2026-04-24 00:36 | -38.50170 | 145.63838 | 18395 ft | 326 kts | 338° |
| 2026-04-24 00:36 | -38.48075 | 145.62748 | 17977 ft | 324 kts | 330° |
| 2026-04-24 00:36 | -38.46356 | 145.60948 | 17625 ft | 319 kts | 309° |
| 2026-04-24 00:37 | -38.44973 | 145.58758 | 17323 ft | 316 kts | 308° |
| 2026-04-24 00:37 | -38.43596 | 145.56592 | 17006 ft | 314 kts | 308° |
| 2026-04-24 00:37 | -38.42248 | 145.54451 | 16688 ft | 312 kts | 308° |
| 2026-04-24 00:37 | -38.40899 | 145.52295 | 16363 ft | 310 kts | 308° |
| 2026-04-24 00:38 | -38.39559 | 145.50145 | 16038 ft | 309 kts | 308° |
| 2026-04-24 00:38 | -38.38231 | 145.48012 | 15722 ft | 307 kts | 308° |
| 2026-04-24 00:38 | -38.36907 | 145.45885 | 15402 ft | 304 kts | 308° |
| 2026-04-24 00:38 | -38.35598 | 145.43782 | 15082 ft | 303 kts | 309° |
| 2026-04-24 00:39 | -38.34291 | 145.41685 | 14767 ft | 301 kts | 308° |
| 2026-04-24 00:39 | -38.32992 | 145.39601 | 14450 ft | 299 kts | 309° |
| 2026-04-24 00:39 | -38.31697 | 145.37524 | 14127 ft | 298 kts | 309° |
| 2026-04-24 00:39 | -38.30412 | 145.35465 | 13752 ft | 296 kts | 309° |
| 2026-04-24 00:40 | -38.29134 | 145.33419 | 13455 ft | 294 kts | 309° |
| 2026-04-24 00:40 | -38.27867 | 145.31391 | 13150 ft | 292 kts | 309° |
| 2026-04-24 00:40 | -38.26603 | 145.29369 | 12846 ft | 290 kts | 309° |
| 2026-04-24 00:40 | -38.25348 | 145.27364 | 12531 ft | 290 kts | 309° |
| 2026-04-24 00:41 | -38.24094 | 145.25363 | 12223 ft | 289 kts | 309° |
| 2026-04-24 00:41 | -38.22849 | 145.23374 | 11919 ft | 287 kts | 309° |
| 2026-04-24 00:41 | -38.21606 | 145.21392 | 11616 ft | 285 kts | 309° |
| 2026-04-24 00:41 | -38.20374 | 145.19428 | 11307 ft | 283 kts | 309° |
| 2026-04-24 00:42 | -38.19150 | 145.17476 | 11022 ft | 281 kts | 310° |
| 2026-04-24 00:42 | -38.17937 | 145.15544 | 10647 ft | 279 kts | 310° |
| 2026-04-24 00:42 | -38.16732 | 145.13627 | 10329 ft | 273 kts | 309° |
| 2026-04-24 00:42 | -38.15565 | 145.11769 | 9853 ft | 273 kts | 310° |
| 2026-04-24 00:43 | -38.14381 | 145.09888 | 9412 ft | 270 kts | 309° |
| 2026-04-24 00:43 | -38.13229 | 145.08057 | 9100 ft | 263 kts | 309° |
| 2026-04-24 00:43 | -38.12077 | 145.06235 | 8845 ft | 265 kts | 310° |
| 2026-04-24 00:43 | -38.10920 | 145.04408 | 8499 ft | 267 kts | 310° |
| 2026-04-24 00:44 | -38.09767 | 145.02594 | 8204 ft | 261 kts | 310° |
| 2026-04-24 00:44 | -38.08631 | 145.00804 | 7872 ft | 258 kts | 310° |
| 2026-04-24 00:44 | -38.07519 | 144.99052 | 7552 ft | 255 kts | 310° |
| 2026-04-24 00:44 | -38.06403 | 144.97294 | 7240 ft | 253 kts | 310° |
| 2026-04-24 00:45 | -38.05316 | 144.95584 | 6931 ft | 250 kts | 310° |
| 2026-04-24 00:45 | -38.04585 | 144.94434 | 6707 ft | 248 kts | 310° |
| 2026-04-24 00:45 | -38.03510 | 144.92743 | 6381 ft | 245 kts | 310° |
| 2026-04-24 00:45 | -38.02383 | 144.91150 | 6061 ft | 242 kts | 323° |
| 2026-04-24 00:46 | -38.00863 | 144.90320 | 5729 ft | 240 kts | 348° |
| 2026-04-24 00:46 | -37.99225 | 144.89952 | 5448 ft | 235 kts | 349° |
| 2026-04-24 00:46 | -37.97620 | 144.89610 | 5175 ft | 232 kts | 349° |
| 2026-04-24 00:46 | -37.96028 | 144.89286 | 4817 ft | 231 kts | 350° |
| 2026-04-24 00:47 | -37.94432 | 144.88970 | 4426 ft | 232 kts | 350° |
| 2026-04-24 00:47 | -37.92844 | 144.88662 | 4076 ft | 230 kts | 351° |
| 2026-04-24 00:47 | -37.91266 | 144.88359 | 3746 ft | 228 kts | 351° |
| 2026-04-24 00:47 | -37.89698 | 144.88061 | 3400 ft | 226 kts | 351° |
| 2026-04-24 00:48 | -37.88169 | 144.87773 | 3084 ft | 223 kts | 351° |
| 2026-04-24 00:48 | -37.86641 | 144.87485 | 2888 ft | 215 kts | 352° |
| 2026-04-24 00:48 | -37.85200 | 144.87214 | 2787 ft | 203 kts | 351° |
| 2026-04-24 00:48 | -37.83851 | 144.86959 | 2710 ft | 188 kts | 351° |
| 2026-04-24 00:49 | -37.82651 | 144.86734 | 2755 ft | 160 kts | 351° |
| 2026-04-24 00:49 | -37.81635 | 144.86542 | 2735 ft | 138 kts | 352° |
| 2026-04-24 00:49 | -37.80667 | 144.86361 | 2548 ft | 146 kts | 352° |
| 2026-04-24 00:49 | -37.79664 | 144.86158 | 2708 ft | 138 kts | 352° |
| 2026-04-24 00:50 | -37.78738 | 144.86004 | 2574 ft | 137 kts | 354° |
| 2026-04-24 00:50 | -37.77779 | 144.85856 | 2452 ft | 135 kts | 354° |
| 2026-04-24 00:50 | -37.76867 | 144.85714 | 2217 ft | 132 kts | 352° |
| 2026-04-24 00:50 | -37.75968 | 144.85514 | 1973 ft | 132 kts | 351° |
| 2026-04-24 00:51 | -37.75082 | 144.85344 | 1800 ft | 128 kts | 352° |
| 2026-04-24 00:51 | -37.74196 | 144.85155 | 1537 ft | 131 kts | 351° |
| 2026-04-24 00:51 | -37.73292 | 144.84964 | 1304 ft | 132 kts | 356° |
| 2026-04-24 00:51 | -37.72387 | 144.84810 | 1134 ft | 131 kts | 357° |
| 2026-04-24 00:52 | -37.71492 | 144.84649 | 946 ft | 130 kts | 355° |
| 2026-04-24 00:52 | -37.70609 | 144.84465 | 795 ft | 129 kts | 355° |
| 2026-04-24 00:52 | -37.69730 | 144.84303 | 675 ft | 127 kts | 356° |
| 2026-04-24 00:52 | -37.68855 | 144.84143 | 448 ft | 125 kts | 355° |
| 2026-04-24 00:53 | -37.68033 | 144.83987 | 361 ft | 110 kts | 354° |
| 2026-04-24 00:53 | -37.67474 | 144.83891 | 372 ft | 51 kts | 351° |
| 2026-04-24 00:53 | -37.67275 | 144.83858 | 379 ft | 15 kts | 353° |
| 2026-04-24 00:53 | -37.67134 | 144.83837 | 385 ft | 24 kts | 354° |
| 2026-04-24 00:54 | -37.66963 | 144.83857 | 389 ft | 18 kts | 16° |
| 2026-04-24 00:54 | -37.66889 | 144.83889 | 392 ft | 0 kts | 21° |
| 2026-04-24 00:54 | -37.66886 | 144.83890 | 392 ft | 1 kts | 21° |
| 2026-04-24 00:54 | -37.66873 | 144.83897 | 393 ft | 5 kts | 21° |
| 2026-04-24 00:55 | -37.66816 | 144.83924 | 394 ft | 13 kts | 20° |
| 2026-04-24 00:55 | -37.66747 | 144.83978 | 391 ft | 11 kts | 40° |
| 2026-04-24 00:55 | -37.66719 | 144.84074 | 391 ft | 13 kts | 85° |
| 2026-04-24 00:55 | -37.66761 | 144.84176 | 390 ft | 16 kts | 143° |
| 2026-04-24 00:56 | -37.66878 | 144.84209 | 392 ft | 17 kts | 171° |
| 2026-04-24 00:56 | -37.67000 | 144.84232 | 388 ft | 19 kts | 174° |
| 2026-04-24 00:56 | -37.67129 | 144.84254 | 386 ft | 17 kts | 171° |
| 2026-04-24 00:56 | -37.67206 | 144.84329 | 385 ft | 16 kts | 95° |
| 2026-04-24 00:57 | -37.67207 | 144.84470 | 387 ft | 16 kts | 101° |
| 2026-04-24 00:57 | -37.67204 | 144.84597 | 389 ft | 11 kts | 82° |
| 2026-04-24 00:57 | -37.67263 | 144.84660 | 388 ft | 3 kts | 171° |
| 2026-04-24 00:58 | -37.67265 | 144.84660 | 388 ft | 0 kts | 171° |